Ammon, Idaho
Current Conditions -  °F | °C
As of 9:53 AM on Thursday 30 Oct 2014 (Local Time) from KIDA Reporting Station
Scattered Clouds Scattered Clouds  
Wind Chill: 38°   Ceiling: Unl
Heat Index: 42°   Visibility: 10mi
Dew Point: 31°   Wind: 7mph
Humidity: 65%   Direction: 350°N
Pressure: 30.32"   Gusts: NA
Location:  43.4284°N, 111.925°W
Report Text: KIDA 301553Z 35006KT 10SM SCT100 06/M01 A3032 RMK AO2 SLP264 T00561006
Loading
Personal Weather Stations






























Interactive Weather Map
Tropical Storm Tracking
New forecast layout! Learn more

10-Day Weather Forecast

Advertisements
Track Severe Weather on mobile